Strona główna
METAR-TAF:

METAR-TAF

Lotnisko :

Port lotniczy Arad

Arad, Rumunia

Szerokość geograficzna: 46-12N, Długość geograficzna: 021-24E, wysokość: 117 m

Aktualna obserwacja pogody

Raport powstał 17 minut temu, godzina 22:30 UTC
Wiatr 6 kt od zachód
Temperatura -2°C
Wilgotność 100%
Ciśnienie 1013 hPa
Widzialność 10 km lub więcej

METAR: LRAR 102230Z AUTO 27006KT 9999 NCD M02/M02 Q1013

czas: 00:47 (22:47 UTC)

Prognoza

Raport powstał 8 godziny i 47 minut temu, godzina 14:00 UTC
Prognoza ważna od 10 godzina 15 UTC do 10 godzina 24 UTC
Wiatr 15 kt od północny zachód
Widzialność 10 km lub więcej
Brak chmur poniżej 1500 m i brak chmur cumulonimbus
Stopniowe zmiany
od 10 godzina 20 UTC do 10 godzina 22 UTC
Wiatr 4 kt z kierunków zmiennych
Widzialność: 5000 m
zamglenie

TAF: LRAR 101400Z 1015/1024 31015KT CAVOK BECMG 1020/1022 VRB04KT 5000 BR

Obserwacja i prognoza pogody dla ponad 4000 lotnisk (raport METAR i TAF).

Dostępne stacje oznaczono żółtymi i czerwonymi punktami na mapie.

Najedź kursorem aby zobaczyć nazwę stacji.

Kliknij aby zobaczyć obserwacje i prognozy pogody.

Aby zmienić mapę: kliknij na zielony przycisk z czarnym krzyżykiem, aby powiększyć; na zielony przycisk z myślnikiem, aby pomniejszyć; na zielone strzałki, aby przejść do map sąsiednich.


METAR-TAF: